createdAt,value
2018-03-27T00:00:09.039Z,71.5
2018-03-27T00:00:49.431Z,71.27
2018-03-27T00:01:29.838Z,71.41
2018-03-27T00:02:10.222Z,71.41
2018-03-27T00:02:50.639Z,71.27
2018-03-27T00:03:31.008Z,71.66
2018-03-27T00:04:11.410Z,71.46
2018-03-27T00:04:51.821Z,72.03
2018-03-27T00:05:32.230Z,71.37
2018-03-27T00:06:12.667Z,71.78
2018-03-27T00:06:52.995Z,71.66
2018-03-27T00:07:33.414Z,71.37
2018-03-27T00:08:13.816Z,71.27
2018-03-27T00:08:54.244Z,71.37
2018-03-27T00:09:34.664Z,71.46
2018-03-27T00:10:15.088Z,71.37
2018-03-27T00:10:55.496Z,71.18
2018-03-27T00:11:35.895Z,71.56
2018-03-27T00:12:16.292Z,71.08
2018-03-27T00:12:56.709Z,71.18
2018-03-27T00:13:37.080Z,71.37
2018-03-27T00:14:17.498Z,71.27
2018-03-27T00:14:57.921Z,71.27
2018-03-27T00:15:38.347Z,71.37
2018-03-27T00:16:18.743Z,70.89
2018-03-27T00:16:59.121Z,71.27
2018-03-27T00:17:39.517Z,71.27
2018-03-27T00:18:19.896Z,71.56
2018-03-27T00:19:00.294Z,70.79
2018-03-27T00:19:40.685Z,70.99
2018-03-27T00:20:21.099Z,70.61
2018-03-27T00:21:01.484Z,70.51
2018-03-27T00:21:41.886Z,70.32
2018-03-27T00:22:22.266Z,70.89
2018-03-27T00:23:02.690Z,70.89
2018-03-27T00:23:43.102Z,70.7
2018-03-27T00:24:23.507Z,70.89
2018-03-27T00:25:03.918Z,70.61
2018-03-27T00:25:44.314Z,70.79
2018-03-27T00:26:24.724Z,70.99
2018-03-27T00:27:05.147Z,70.79
2018-03-27T00:27:45.535Z,71.27
2018-03-27T00:29:32.827Z,71.04
2018-03-27T00:30:13.189Z,71.81
2018-03-27T00:30:53.598Z,71.52
2018-03-27T00:31:34.000Z,72.28
2018-03-27T00:32:14.394Z,72.66
2018-03-27T00:34:06.715Z,73.14
2018-03-27T00:34:47.113Z,72.85
2018-03-27T00:35:27.533Z,73.42
2018-03-27T00:36:07.893Z,73.42
2018-03-27T00:37:55.192Z,73.33
2018-03-27T00:38:35.548Z,74.18
2018-03-27T00:39:15.952Z,74.08
2018-03-27T00:39:56.380Z,74.47
2018-03-27T00:40:36.792Z,74.56
2018-03-27T00:41:17.196Z,74.75
2018-03-27T00:41:57.621Z,74.66
2018-03-27T00:42:37.982Z,74.66
2018-03-27T00:43:18.398Z,74.66
2018-03-27T00:43:58.791Z,74.27
2018-03-27T00:44:39.213Z,74.18
2018-03-27T00:45:19.630Z,74.08
2018-03-27T00:45:59.961Z,73.99
2018-03-27T00:46:40.325Z,74.18
2018-03-27T00:47:20.732Z,73.52
2018-03-27T00:48:01.137Z,73.99
2018-03-27T00:48:41.571Z,74.18
2018-03-27T00:49:21.974Z,74.08
2018-03-27T00:50:02.378Z,74.18
2018-03-27T00:50:42.772Z,74.37
2018-03-27T00:51:23.144Z,74.08
2018-03-27T00:52:03.543Z,74.37
2018-03-27T00:52:43.955Z,74.27
2018-03-27T00:53:24.358Z,73.99
2018-03-27T00:54:04.775Z,74.37
2018-03-27T00:54:45.156Z,74.56
2018-03-27T00:55:25.554Z,74.37
2018-03-27T00:56:05.938Z,73.9
2018-03-27T00:56:46.329Z,74.18
2018-03-27T00:57:26.745Z,73.71
2018-03-27T00:58:07.134Z,73.71
2018-03-27T00:58:47.510Z,73.8
2018-03-27T00:59:27.927Z,74.37
2018-03-27T01:00:08.316Z,74.18
2018-03-27T01:00:48.736Z,73.99
2018-03-27T01:01:29.153Z,73.99
2018-03-27T01:02:09.553Z,74.08
2018-03-27T01:02:49.964Z,74.08
2018-03-27T01:03:30.342Z,73.8
2018-03-27T01:04:10.742Z,73.9
2018-03-27T01:04:51.171Z,73.52
2018-03-27T01:05:31.575Z,73.23
2018-03-27T01:06:11.956Z,73.33
2018-03-27T01:06:52.366Z,73.33
2018-03-27T01:07:32.745Z,73.23
2018-03-27T01:09:50.416Z,73.23
2018-03-27T01:10:30.715Z,72.85
2018-03-27T01:11:11.129Z,72.66
2018-03-27T01:11:51.549Z,72.95
2018-03-27T01:12:31.977Z,73.04
2018-03-27T01:13:12.407Z,72.95
2018-03-27T01:13:52.784Z,72.75
2018-03-27T01:14:33.184Z,72.85
2018-03-27T01:15:13.604Z,72.75
2018-03-27T01:15:54.042Z,72.95
2018-03-27T01:16:34.429Z,73.04
2018-03-27T01:17:14.834Z,73.23
2018-03-27T01:17:55.238Z,73.23
2018-03-27T01:18:35.642Z,73.23
2018-03-27T01:19:16.062Z,73.52
2018-03-27T01:19:56.473Z,74.18
2018-03-27T01:20:36.883Z,74.08
2018-03-27T01:21:17.278Z,73.52
2018-03-27T01:21:57.689Z,74.27
2018-03-27T01:23:55.078Z,73.04
2018-03-27T01:24:35.469Z,72.75
2018-03-27T01:25:15.882Z,72.95
2018-03-27T01:25:56.266Z,72.85
2018-03-27T01:26:36.652Z,73.33
2018-03-27T01:27:17.079Z,74.08
2018-03-27T01:27:57.484Z,74.56
2018-03-27T01:28:37.924Z,74.37
2018-03-27T01:29:18.307Z,74.56
2018-03-27T01:29:58.703Z,74.56
2018-03-27T01:30:39.121Z,74.56
2018-03-27T01:31:19.548Z,74.94
2018-03-27T01:31:59.932Z,74.18
2018-03-27T01:32:40.339Z,74.27
2018-03-27T01:33:20.754Z,74.08
2018-03-27T01:34:01.170Z,74.18
2018-03-27T01:34:41.594Z,73.61
2018-03-27T01:35:21.965Z,73.23
2018-03-27T01:36:02.368Z,73.52
2018-03-27T01:37:54.698Z,74.56
2018-03-27T01:38:35.106Z,74.56
2018-03-27T01:39:15.509Z,74.56
2018-03-27T01:39:55.924Z,74.85
2018-03-27T01:40:36.391Z,74.71
2018-03-27T01:41:16.744Z,74.47
2018-03-27T01:41:57.128Z,74.27
2018-03-27T01:42:37.558Z,74.37
2018-03-27T01:43:17.907Z,74.75
2018-03-27T01:43:58.334Z,74.47
2018-03-27T01:44:38.762Z,74.24
2018-03-27T01:46:31.067Z,74.15
2018-03-27T01:47:11.442Z,74.05
2018-03-27T01:47:51.856Z,74.24
2018-03-27T01:48:32.283Z,74.15
2018-03-27T01:49:12.668Z,74.43
2018-03-27T01:49:53.035Z,74.81
2018-03-27T01:50:33.438Z,74.71
2018-03-27T01:51:13.830Z,74.9
2018-03-27T01:51:54.217Z,74.9
2018-03-27T01:52:34.605Z,75.38
2018-03-27T01:53:15.007Z,74.81
2018-03-27T01:53:55.442Z,76.14
2018-03-27T01:54:35.831Z,75.67
2018-03-27T01:55:16.233Z,76.14
2018-03-27T01:55:56.629Z,76.01
2018-03-27T01:56:37.027Z,76.32
2018-03-27T01:57:17.476Z,76.9
2018-03-27T01:57:57.821Z,76.9
2018-03-27T01:58:38.211Z,77.71
2018-03-27T01:59:18.615Z,77.75
2018-03-27T02:01:36.188Z,77.75
2018-03-27T02:02:16.592Z,77.56
2018-03-27T02:02:56.999Z,77.75
2018-03-27T02:03:37.390Z,77.24
2018-03-27T02:04:17.785Z,77.33
2018-03-27T02:04:58.202Z,77.14
2018-03-27T02:05:38.601Z,77.05
2018-03-27T02:06:19.005Z,77.05
2018-03-27T02:06:59.433Z,77.05
2018-03-27T02:07:39.799Z,77.24
2018-03-27T02:08:20.211Z,77.62
2018-03-27T02:09:00.600Z,77.52
2018-03-27T02:09:40.959Z,77.43
2018-03-27T02:10:21.390Z,77.9
2018-03-27T02:11:01.831Z,78
2018-03-27T02:11:42.203Z,78.28
2018-03-27T02:12:22.591Z,78.28
2018-03-27T02:13:02.990Z,78.19
2018-03-27T02:13:43.369Z,78.75
2018-03-27T02:14:23.792Z,78.28
2018-03-27T02:15:04.196Z,78.56
2018-03-27T02:15:44.557Z,78.75
2018-03-27T02:16:24.955Z,78.66
2018-03-27T02:17:05.346Z,79.04
2018-03-27T02:17:45.758Z,78.95
2018-03-27T02:18:26.164Z,78.85
2018-03-27T02:19:06.553Z,78.72
2018-03-27T02:19:46.957Z,79.52
2018-03-27T02:20:27.383Z,79.19
2018-03-27T02:21:07.786Z,79.28
2018-03-27T02:21:48.188Z,79.28
2018-03-27T02:22:28.602Z,79.85
2018-03-27T02:23:08.998Z,80.04
2018-03-27T02:23:49.398Z,80.14
2018-03-27T02:24:29.816Z,80.33
2018-03-27T02:25:10.178Z,80.71
2018-03-27T02:25:50.594Z,80.62
2018-03-27T02:26:31.012Z,80.99
2018-03-27T02:27:11.434Z,80.9
2018-03-27T02:27:51.841Z,81.75
2018-03-27T02:28:32.229Z,81.94
2018-03-27T02:29:12.624Z,81.85
2018-03-27T02:29:53.047Z,81.94
2018-03-27T02:30:33.431Z,82.23
2018-03-27T02:31:13.858Z,81.94
2018-03-27T02:31:54.298Z,82.04
2018-03-27T02:32:34.698Z,82.13
2018-03-27T02:33:15.111Z,82.6
2018-03-27T02:33:55.513Z,82.89
2018-03-27T02:34:35.914Z,82.7
2018-03-27T02:35:16.318Z,82.7
2018-03-27T02:35:56.706Z,82.56
2018-03-27T02:36:37.133Z,83.23
2018-03-27T02:37:17.520Z,82.94
2018-03-27T02:37:57.905Z,83.13
2018-03-27T02:38:38.299Z,83.32
2018-03-27T02:39:18.727Z,83.8
2018-03-27T02:39:59.125Z,83.7
2018-03-27T02:40:39.551Z,83.7
2018-03-27T02:41:19.933Z,83.98
2018-03-27T02:42:00.352Z,84.27
2018-03-27T02:42:40.752Z,84.36
2018-03-27T02:43:21.157Z,84.17
2018-03-27T02:44:01.549Z,84.46
2018-03-27T02:44:41.939Z,84.27
2018-03-27T02:45:22.350Z,84.46
2018-03-27T02:46:02.764Z,84.65
2018-03-27T02:46:43.183Z,84.65
2018-03-27T02:47:23.592Z,84.55
2018-03-27T02:48:03.979Z,84.08
2018-03-27T02:48:44.369Z,84.74
2018-03-27T02:49:24.802Z,84.65
2018-03-27T02:50:05.182Z,84.55
2018-03-27T02:50:45.590Z,84.55
2018-03-27T02:51:26.006Z,84.65
2018-03-27T02:52:06.415Z,85.13
2018-03-27T02:52:46.855Z,84.74
2018-03-27T02:53:27.218Z,84.65
2018-03-27T02:54:07.626Z,83.42
2018-03-27T02:54:48.049Z,83.42
2018-03-27T02:55:28.419Z,83.13
2018-03-27T02:56:08.817Z,83.8
2018-03-27T02:56:49.210Z,83.55
2018-03-27T02:57:29.625Z,82.89
2018-03-27T02:58:10.018Z,82.13
2018-03-27T02:58:50.429Z,81.85
2018-03-27T02:59:30.794Z,81.56
2018-03-27T03:00:11.181Z,80.99
2018-03-27T03:00:51.606Z,81.37
2018-03-27T03:03:04.068Z,81.27
2018-03-27T03:03:44.479Z,80.95
2018-03-27T03:04:24.848Z,81.43
2018-03-27T03:05:05.254Z,81.24
2018-03-27T03:05:45.678Z,81.24
2018-03-27T03:07:38.003Z,81.62
2018-03-27T03:08:18.382Z,81.52
2018-03-27T03:08:58.818Z,81.43
2018-03-27T03:09:39.218Z,82.09
2018-03-27T03:10:19.598Z,81.99
2018-03-27T03:11:00.004Z,81.99
2018-03-27T03:11:40.432Z,82.79
2018-03-27T03:12:20.853Z,82.79
2018-03-27T03:13:01.197Z,82.6
2018-03-27T03:13:41.595Z,81.94
2018-03-27T03:14:22.001Z,80.8
2018-03-27T03:15:02.381Z,78.72
2018-03-27T03:17:14.812Z,77.48
2018-03-27T03:17:55.200Z,77.58
2018-03-27T03:18:35.620Z,78.43
2018-03-27T03:19:16.021Z,78.62
2018-03-27T03:19:56.415Z,78.34
2018-03-27T03:20:36.828Z,78.24
2018-03-27T03:21:17.225Z,78.91
2018-03-27T03:21:57.653Z,79.06
2018-03-27T03:22:38.078Z,80
2018-03-27T03:23:18.436Z,80.57
2018-03-27T03:23:58.822Z,81.05
2018-03-27T03:24:39.247Z,81.43
2018-03-27T03:25:19.647Z,81.71
2018-03-27T03:26:00.044Z,82.18
2018-03-27T03:26:40.464Z,82.09
2018-03-27T03:27:20.870Z,81.9
2018-03-27T03:28:01.232Z,80.86
2018-03-27T03:28:41.636Z,80.48
2018-03-27T03:29:22.071Z,80.86
2018-03-27T03:30:02.486Z,80.95
2018-03-27T03:30:42.892Z,80.95
2018-03-27T03:31:23.302Z,80.95
2018-03-27T03:32:03.694Z,81.05
2018-03-27T03:32:44.090Z,81.71
2018-03-27T03:33:24.523Z,81.71
2018-03-27T03:34:04.939Z,81.81
2018-03-27T03:34:45.364Z,81.62
2018-03-27T03:35:25.772Z,82.09
2018-03-27T03:36:06.164Z,82.47
2018-03-27T03:36:46.599Z,82.09
2018-03-27T03:37:27.005Z,82.37
2018-03-27T03:38:07.418Z,82.28
2018-03-27T03:38:47.827Z,81.9
2018-03-27T03:41:00.315Z,82.28
2018-03-27T03:41:40.721Z,82.66
2018-03-27T03:42:21.148Z,82.66
2018-03-27T03:43:01.519Z,83.51
2018-03-27T03:43:41.912Z,82.94
2018-03-27T03:44:22.324Z,83.98
2018-03-27T03:45:02.725Z,83.23
2018-03-27T03:45:43.161Z,82.56
2018-03-27T03:46:23.565Z,82.56
2018-03-27T03:47:03.973Z,82.94
2018-03-27T03:47:44.367Z,82.75
2018-03-27T03:48:24.758Z,83.32
2018-03-27T03:49:05.154Z,82.37
2018-03-27T03:49:45.569Z,81.99
2018-03-27T03:50:25.956Z,81.52
2018-03-27T03:51:06.377Z,81.52
2018-03-27T03:51:46.781Z,81.33
2018-03-27T03:52:27.179Z,81.81
2018-03-27T03:53:07.647Z,82.09
2018-03-27T03:53:47.982Z,82.18
2018-03-27T03:54:28.391Z,81.9
2018-03-27T03:56:15.639Z,81.9
2018-03-27T03:56:56.080Z,82.28
2018-03-27T03:59:08.551Z,82.09
2018-03-27T03:59:48.893Z,82.09
2018-03-27T04:00:29.275Z,82.94
2018-03-27T04:01:09.682Z,83.7
2018-03-27T04:01:50.084Z,83.42
2018-03-27T04:02:30.485Z,83.61
2018-03-27T04:03:10.884Z,83.04
2018-03-27T04:03:51.286Z,82.94
2018-03-27T04:04:31.682Z,83.61
2018-03-27T04:05:12.090Z,82.56
2018-03-27T04:05:52.488Z,81.62
2018-03-27T04:45:38.548Z,87.88
2018-03-27T04:46:18.268Z,87.78
2018-03-27T04:46:58.672Z,87.31
2018-03-27T04:47:39.097Z,87.59
2018-03-27T04:48:19.491Z,87.21
2018-03-27T04:48:59.898Z,86.74
2018-03-27T04:49:40.297Z,86.46
2018-03-27T04:50:20.700Z,86.93
2018-03-27T04:51:01.101Z,87.31
2018-03-27T04:51:41.500Z,87.88
2018-03-27T04:52:21.879Z,88.45
2018-03-27T04:54:34.354Z,89.11
2018-03-27T04:55:14.903Z,89.3
2018-03-27T04:55:55.303Z,89.77
2018-03-27T04:56:35.721Z,89.3
2018-03-27T04:58:48.206Z,89.15
2018-03-27T04:59:28.566Z,88.96
2018-03-27T05:00:08.982Z,88.87
2018-03-27T05:00:49.365Z,87.73
2018-03-27T05:01:29.756Z,87.26
2018-03-27T05:02:10.205Z,85.84
2018-03-27T05:02:50.574Z,84.7
2018-03-27T05:03:30.977Z,84.13
2018-03-27T05:04:11.358Z,83.56
2018-03-27T05:04:51.778Z,84.32
2018-03-27T05:05:32.188Z,84.89
2018-03-27T05:06:12.612Z,85.74
2018-03-27T05:06:53.017Z,86.41
2018-03-27T05:07:33.557Z,86.22
2018-03-27T05:08:14.295Z,85.17
2018-03-27T05:08:54.714Z,85.17
2018-03-27T05:09:35.133Z,85.27
2018-03-27T05:10:15.589Z,84.7
2018-03-27T05:10:56.027Z,84.61
2018-03-27T05:12:50.213Z,85.84
2018-03-27T05:13:30.605Z,85.17
2018-03-27T05:14:11.062Z,85.84
2018-03-27T05:14:51.497Z,85.65
2018-03-27T05:15:31.858Z,84.99
2018-03-27T05:16:12.317Z,84.42
2018-03-27T05:16:52.878Z,83.28
2018-03-27T05:17:33.300Z,83.18
2018-03-27T05:18:13.740Z,83.28
2018-03-27T05:18:54.127Z,82.9
2018-03-27T05:19:34.515Z,83.75
2018-03-27T05:20:14.917Z,84.23
2018-03-27T05:20:55.378Z,85.08
2018-03-27T05:21:35.742Z,85.17
2018-03-27T05:22:16.195Z,83.61
2018-03-27T05:22:56.627Z,83.42
2018-03-27T05:23:37.274Z,84.17
2018-03-27T05:24:17.759Z,83.7
2018-03-27T05:24:58.171Z,82.94
2018-03-27T05:25:39.695Z,82.75
2018-03-27T05:26:19.918Z,83.51
2018-03-27T05:27:00.382Z,83.7
2018-03-27T05:27:40.803Z,83.42
2018-03-27T05:28:21.300Z,83.13
2018-03-27T05:29:01.681Z,83.42
2018-03-27T05:29:42.155Z,83.7
2018-03-27T05:30:22.551Z,83.89
2018-03-27T05:31:02.975Z,82.94
2018-03-27T05:31:43.342Z,81.99
2018-03-27T05:32:23.729Z,81.43
2018-03-27T05:33:04.105Z,80.57
2018-03-27T05:33:44.507Z,79.91
2018-03-27T05:34:25.043Z,80.76
2018-03-27T05:35:05.415Z,81.62
2018-03-27T05:35:45.780Z,81.14
2018-03-27T05:36:26.284Z,80.48
2018-03-27T05:37:06.691Z,80.52
2018-03-27T05:37:47.098Z,80.43
2018-03-27T05:38:27.647Z,79.28
2018-03-27T05:39:07.927Z,79.47
2018-03-27T05:39:48.382Z,78.34
2018-03-27T05:40:28.848Z,78.15
2018-03-27T05:41:09.274Z,78.05
2018-03-27T05:41:49.670Z,77.48
2018-03-27T05:42:30.255Z,77.11
2018-03-27T05:43:11.264Z,76.39
2018-03-27T05:43:51.960Z,76.29
2018-03-27T05:44:32.255Z,76.1
2018-03-27T05:45:12.600Z,76.76
2018-03-27T05:45:53.034Z,76.39
2018-03-27T05:46:33.494Z,75.24
2018-03-27T05:47:13.847Z,75.28
2018-03-27T05:47:54.297Z,73.96
2018-03-27T05:48:34.800Z,72.72
2018-03-27T05:49:15.211Z,71.77
2018-03-27T05:49:55.687Z,71.11
2018-03-27T05:50:36.100Z,71.2
2018-03-27T05:51:16.702Z,71.2
2018-03-27T05:51:57.284Z,71.48
2018-03-27T05:52:38.615Z,71.62
2018-03-27T05:53:31.910Z,70.95
2018-03-27T05:54:12.383Z,70.19
2018-03-27T05:54:52.885Z,69.81
2018-03-27T05:55:33.247Z,70.1
2018-03-27T05:56:13.765Z,69.18
2018-03-27T05:56:54.253Z,67.66
2018-03-27T05:57:34.615Z,67.38
2018-03-27T05:58:15.044Z,67.19
2018-03-27T05:58:55.456Z,67.09
2018-03-27T05:59:37.028Z,67.38
2018-03-27T06:00:17.475Z,67.63
2018-03-27T06:00:57.908Z,67.63
2018-03-27T06:01:38.510Z,68.48
2018-03-27T06:02:18.883Z,68.67
2018-03-27T06:02:59.396Z,68.48
2018-03-27T06:03:39.813Z,68.96
2018-03-27T06:04:20.190Z,68.9
2018-03-27T06:05:00.596Z,67.85
2018-03-27T06:05:41.111Z,67.66
2018-03-27T06:06:21.509Z,67.28
2018-03-27T06:07:01.894Z,66.61
2018-03-27T06:07:42.322Z,66.46
2018-03-27T06:08:23.384Z,65.51
2018-03-27T06:09:03.870Z,64.18
2018-03-27T06:09:44.487Z,63.42
2018-03-27T06:10:24.806Z,63.04
2018-03-27T06:11:05.266Z,63.13
2018-03-27T06:11:45.749Z,63.32
2018-03-27T06:13:58.915Z,64.56
2018-03-27T06:14:39.454Z,63.54
2018-03-27T06:15:19.879Z,62.49
2018-03-27T06:16:00.359Z,62.18
2018-03-27T06:16:40.921Z,62.49
2018-03-27T06:17:21.365Z,62.37
2018-03-27T06:18:01.919Z,63.32
2018-03-27T06:18:42.801Z,63.6
2018-03-27T06:19:23.196Z,62.94
2018-03-27T06:20:03.677Z,63.39
2018-03-27T06:20:44.110Z,63.76
2018-03-27T06:21:24.532Z,64.37
2018-03-27T06:22:04.957Z,64.14
2018-03-27T06:22:45.402Z,63.76
2018-03-27T06:23:25.944Z,64.56
2018-03-27T06:24:06.427Z,63.42
2018-03-27T06:24:46.824Z,63.04
2018-03-27T06:25:27.229Z,62.65
2018-03-27T06:26:07.647Z,62.75
2018-03-27T06:26:48.083Z,62.37
2018-03-27T06:27:28.573Z,62.75
2018-03-27T06:28:08.992Z,63.51
2018-03-27T06:28:49.394Z,63.04
2018-03-27T06:30:47.126Z,61.83
2018-03-27T06:33:01.778Z,59.93
2018-03-27T06:33:46.792Z,60.5
2018-03-27T06:34:27.964Z,60.47
2018-03-27T06:35:08.893Z,61.23
2018-03-27T06:35:49.297Z,60.97
2018-03-27T06:36:29.690Z,60.57
2018-03-27T06:37:10.151Z,61.13
2018-03-27T06:37:50.614Z,61.13
2018-03-27T06:38:31.063Z,61.04
2018-03-27T06:39:12.734Z,61.04
2018-03-27T06:39:53.210Z,61.52
2018-03-27T06:40:33.553Z,61.71
2018-03-27T06:41:13.974Z,61.16
2018-03-27T06:41:54.372Z,61.04
2018-03-27T06:42:34.766Z,60.88
2018-03-27T06:43:15.158Z,61.16
2018-03-27T06:43:55.586Z,60.69
2018-03-27T06:44:35.977Z,61.07
2018-03-27T06:45:16.390Z,60.31
2018-03-27T06:45:56.771Z,60.88
2018-03-27T06:46:37.214Z,61
2018-03-27T06:47:17.627Z,59.96
2018-03-27T06:47:58.078Z,59.1
2018-03-27T06:48:38.474Z,59.58
2018-03-27T06:49:18.907Z,58.62
2018-03-27T06:49:59.424Z,58.72
2018-03-27T06:50:39.853Z,58.81
2018-03-27T06:51:20.288Z,58.91
2018-03-27T06:52:00.714Z,57.51
2018-03-27T06:52:41.134Z,57.89
2018-03-27T06:53:21.659Z,57.8
2018-03-27T06:54:02.052Z,57.42
2018-03-27T06:54:43.502Z,57.7
2018-03-27T06:55:24.531Z,56.75
2018-03-27T06:56:05.259Z,57.13
2018-03-27T06:56:44.844Z,57.42
2018-03-27T06:57:25.262Z,55.99
2018-03-27T06:58:05.648Z,57.04
2018-03-27T06:58:46.069Z,56.18
2018-03-27T06:59:26.508Z,56.18
2018-03-27T07:00:06.911Z,56.37
2018-03-27T07:00:47.364Z,56.75
2018-03-27T07:01:27.781Z,56.75
2018-03-27T07:02:08.215Z,56.75
2018-03-27T07:02:48.670Z,56.27
2018-03-27T07:03:29.083Z,56.85
2018-03-27T07:04:09.588Z,56.65
2018-03-27T07:04:49.904Z,56.75
2018-03-27T07:05:30.387Z,57.39
2018-03-27T07:06:10.731Z,58.06
2018-03-27T07:06:51.197Z,58.06
2018-03-27T07:07:31.689Z,58.72
2018-03-27T07:08:12.198Z,59.01
2018-03-27T07:08:52.543Z,59.55
2018-03-27T07:09:32.971Z,60.02
2018-03-27T07:10:13.612Z,60.41
2018-03-27T07:10:54.062Z,60.02
2018-03-27T07:11:35.306Z,60.88
2018-03-27T07:12:15.146Z,61.93
2018-03-27T07:12:55.574Z,62.69
2018-03-27T07:13:35.986Z,62.97
2018-03-27T07:14:16.411Z,63.04
2018-03-27T07:14:56.820Z,63.04
2018-03-27T07:15:37.200Z,62.56
2018-03-27T07:16:17.781Z,62.94
2018-03-27T07:16:58.234Z,63.99
2018-03-27T07:17:38.661Z,64.08
2018-03-27T07:18:19.085Z,64.08
2018-03-27T07:18:59.478Z,65.22
2018-03-27T07:19:39.926Z,65.41
2018-03-27T07:20:20.314Z,65.13
2018-03-27T07:21:00.696Z,64.56
2018-03-27T07:21:41.125Z,64.46
2018-03-27T07:22:21.540Z,64.43
2018-03-27T07:23:02.247Z,65.19
2018-03-27T07:23:43.038Z,64.53
2018-03-27T07:24:23.680Z,64.81
2018-03-27T07:25:04.465Z,65.86
2018-03-27T07:25:45.365Z,66.33
2018-03-27T07:26:26.254Z,65.38
2018-03-27T07:27:06.165Z,66.24
2018-03-27T07:27:46.574Z,65.47
2018-03-27T07:28:27.941Z,65.95
2018-03-27T07:29:08.388Z,67.47
2018-03-27T07:29:48.780Z,67.28
2018-03-27T07:30:29.697Z,66.71
2018-03-27T07:31:10.904Z,66.52
2018-03-27T07:31:51.820Z,66.42
2018-03-27T07:32:32.678Z,65.95
2018-03-27T07:33:13.163Z,66.42
2018-03-27T07:33:56.577Z,66.71
2018-03-27T07:34:35.598Z,67.28
2018-03-27T07:35:15.918Z,67
2018-03-27T07:37:47.308Z,66.42
2018-03-27T07:38:27.757Z,66.71
2018-03-27T07:39:08.077Z,66.61
2018-03-27T07:39:49.056Z,66.52
2018-03-27T07:40:28.993Z,66.71
2018-03-27T07:41:09.973Z,67.38
2018-03-27T07:41:49.953Z,67
2018-03-27T07:42:30.916Z,67.19
2018-03-27T07:43:11.640Z,66.42
2018-03-27T07:43:52.455Z,67.09
2018-03-27T07:44:32.962Z,67.28
2018-03-27T07:45:13.470Z,67.76
2018-03-27T07:45:53.899Z,67.19
2018-03-27T07:46:34.305Z,67.85
2018-03-27T07:47:15.592Z,67.66
2018-03-27T07:47:56.214Z,67.76
2018-03-27T07:49:49.296Z,67.47
2018-03-27T07:50:29.765Z,67.19
2018-03-27T07:51:10.137Z,66.52
2018-03-27T07:51:50.617Z,66.71
2018-03-27T07:52:31.134Z,67
2018-03-27T07:53:11.458Z,67.09
2018-03-27T07:53:52.795Z,67.76
2018-03-27T07:54:33.182Z,67.85
2018-03-27T07:55:13.601Z,67.66
2018-03-27T07:55:53.970Z,67.57
2018-03-27T07:58:13.979Z,67.94
2018-03-27T07:58:54.053Z,67.66
2018-03-27T07:59:34.477Z,67.66
2018-03-27T08:00:14.939Z,67.72
2018-03-27T08:00:55.381Z,68.58
2018-03-27T08:01:35.784Z,68.39
2018-03-27T08:02:16.552Z,68.58
2018-03-27T08:02:57.818Z,68.77
2018-03-27T08:03:37.578Z,69.34
2018-03-27T08:04:18.909Z,69.18
2018-03-27T08:04:58.874Z,69.09
2018-03-27T08:05:39.361Z,68.96
2018-03-27T08:06:20.207Z,68.99
2018-03-27T08:07:01.303Z,68.67
2018-03-27T08:07:41.559Z,68.23
2018-03-27T08:08:22.108Z,68.48
2018-03-27T08:09:02.535Z,69.15
2018-03-27T08:09:42.920Z,68.77
2018-03-27T08:10:24.371Z,69.15
2018-03-27T08:11:05.106Z,68.52
2018-03-27T08:11:45.293Z,68.67
2018-03-27T08:12:25.625Z,69.18
2018-03-27T08:14:43.679Z,68.61
2018-03-27T08:15:25.930Z,68.61
2018-03-27T08:16:06.297Z,68.23
2018-03-27T08:16:46.839Z,68.33
2018-03-27T08:17:27.164Z,68.23
2018-03-27T08:18:07.569Z,68.71
2018-03-27T08:18:47.954Z,68.23
2018-03-27T08:19:28.329Z,68.55
2018-03-27T08:20:08.714Z,67.69
2018-03-27T08:20:49.192Z,67.41
2018-03-27T08:21:29.581Z,67.32
2018-03-27T08:22:10.104Z,66.65
2018-03-27T08:22:50.557Z,65.32
2018-03-27T08:23:30.874Z,65.13
2018-03-27T08:24:11.412Z,65.16
2018-03-27T08:24:51.865Z,64.31
2018-03-27T08:25:32.569Z,63.07
2018-03-27T08:26:13.297Z,62.97
2018-03-27T08:26:53.722Z,63.54
2018-03-27T08:27:34.204Z,62.69
2018-03-27T08:28:14.645Z,62.88
2018-03-27T08:30:13.185Z,62.69
2018-03-27T08:30:56.745Z,61.93
2018-03-27T08:31:37.332Z,61.16
2018-03-27T08:32:18.203Z,62.21
2018-03-27T08:33:00.420Z,61.16
2018-03-27T08:33:40.798Z,61.64
2018-03-27T08:35:04.604Z,60.02
2018-03-27T08:35:45.853Z,60.12
2018-03-27T08:36:29.321Z,60.31
2018-03-27T08:37:10.176Z,61.07
2018-03-27T08:37:50.684Z,62.21
2018-03-27T08:38:31.058Z,62.3
2018-03-27T08:39:11.977Z,62.49
2018-03-27T08:39:52.441Z,62.59
2018-03-27T08:40:37.221Z,60.97
2018-03-27T08:41:21.282Z,61.07
2018-03-27T08:42:01.657Z,60.97
2018-03-27T08:47:59.444Z,60.53
2018-03-27T08:48:42.545Z,60.63
2018-03-27T08:49:22.937Z,60.44
2018-03-27T08:50:03.346Z,60.53
2018-03-27T08:50:43.805Z,60.72
2018-03-27T08:51:25.145Z,60.05
2018-03-27T08:52:05.118Z,60.34
2018-03-27T08:52:45.569Z,60.05
2018-03-27T08:53:25.902Z,60.05
2018-03-27T08:54:06.385Z,59.86
2018-03-27T08:54:47.150Z,60.05
2018-03-27T08:55:27.456Z,60.82
2018-03-27T08:56:08.073Z,60.91
2018-03-27T08:56:48.691Z,59.67
2018-03-27T08:57:29.682Z,58.72
2018-03-27T08:58:10.199Z,59.2
2018-03-27T08:58:50.637Z,59.48
2018-03-27T08:59:31.097Z,57.96
2018-03-27T09:00:11.464Z,57.96
2018-03-27T09:00:52.083Z,57.58
2018-03-27T09:01:33.118Z,57.39
2018-03-27T09:02:13.104Z,57.67
2018-03-27T09:02:54.517Z,58.15
2018-03-27T09:03:34.195Z,58.79
2018-03-27T09:04:14.799Z,58.79
2018-03-27T09:04:55.128Z,59.45
2018-03-27T09:05:35.673Z,59.74
2018-03-27T09:06:16.214Z,60.31
2018-03-27T09:06:56.899Z,60.41
2018-03-27T09:07:37.314Z,59.93
2018-03-27T09:08:17.952Z,60.6
2018-03-27T09:08:58.462Z,60.02
2018-03-27T09:09:39.138Z,60.02
2018-03-27T09:10:19.996Z,60.53
2018-03-27T09:11:01.618Z,60.34
2018-03-27T09:11:42.113Z,59.96
2018-03-27T09:12:23.032Z,59.77
2018-03-27T09:13:04.223Z,59.86
2018-03-27T09:13:44.502Z,59.39
2018-03-27T09:14:25.200Z,59.1
2018-03-27T09:15:06.168Z,58.53
2018-03-27T09:15:46.743Z,58.34
2018-03-27T09:16:28.794Z,58.75
2018-03-27T09:17:09.220Z,58.18
2018-03-27T09:17:49.048Z,57.99
2018-03-27T09:18:29.989Z,57.42
2018-03-27T09:19:11.259Z,56.75
2018-03-27T09:19:53.044Z,56.27
2018-03-27T09:20:33.451Z,56.94
2018-03-27T09:21:13.593Z,56.65
2018-03-27T09:21:55.543Z,56.56
2018-03-27T09:22:36.722Z,56.56
2018-03-27T09:23:16.455Z,56.75
2018-03-27T09:23:57.102Z,56.37
2018-03-27T09:24:38.713Z,56.09
2018-03-27T09:25:19.505Z,56.18
2018-03-27T09:26:01.178Z,56.65
2018-03-27T09:26:41.402Z,55.99
2018-03-27T09:27:22.674Z,55.22
2018-03-27T09:28:03.645Z,55.04
2018-03-27T09:28:44.121Z,54.94
2018-03-27T09:29:24.476Z,54.75
2018-03-27T09:30:05.503Z,53.8
2018-03-27T09:30:46.584Z,53.13
2018-03-27T09:31:27.003Z,52.75
2018-03-27T09:32:07.446Z,52.28
2018-03-27T09:32:48.289Z,52.47
2018-03-27T09:33:30.026Z,52.56
2018-03-27T09:34:11.097Z,51.51
2018-03-27T09:34:51.190Z,50.27
2018-03-27T09:35:32.242Z,50.18
2018-03-27T09:36:13.742Z,50.37
2018-03-27T09:36:54.560Z,49.99
2018-03-27T09:37:35.564Z,49.51
2018-03-27T09:38:15.580Z,49.13
2018-03-27T09:38:57.087Z,49.32
2018-03-27T09:39:38.140Z,48.94
2018-03-27T09:40:18.879Z,48.18
2018-03-27T09:40:59.292Z,49.51
2018-03-27T09:41:39.951Z,49.42
2018-03-27T09:42:20.785Z,47.61
2018-03-27T09:43:01.572Z,46.56
2018-03-27T09:43:42.305Z,45.99
2018-03-27T09:44:22.704Z,45.7
2018-03-27T09:45:03.159Z,45.42
2018-03-27T09:45:43.622Z,46.18
2018-03-27T09:46:24.273Z,46.28
2018-03-27T09:47:04.886Z,46.28
2018-03-27T09:47:45.392Z,46.47
2018-03-27T09:48:26.018Z,46.66
2018-03-27T09:49:06.592Z,47.04
2018-03-27T09:49:47.350Z,47.06
2018-03-27T09:50:27.515Z,46.2
2018-03-27T09:51:08.401Z,46.39
2018-03-27T09:51:48.697Z,45.63
2018-03-27T09:52:29.301Z,44.59
2018-03-27T09:53:10.188Z,46.01
2018-03-27T09:55:28.198Z,45.83
2018-03-27T09:56:07.640Z,46.3
2018-03-27T09:56:48.676Z,46.09
2018-03-27T09:57:29.145Z,46.37
2018-03-27T09:58:09.531Z,46.3
2018-03-27T09:58:50.092Z,46.3
2018-03-27T09:59:30.500Z,46.2
2018-03-27T10:00:10.898Z,45.63
2018-03-27T10:00:51.679Z,45.42
2018-03-27T10:01:32.094Z,45.61
2018-03-27T10:02:13.916Z,45.89
2018-03-27T10:02:54.444Z,46.18
2018-03-27T10:03:36.276Z,46.37
2018-03-27T10:04:16.952Z,46.97
2018-03-27T10:04:59.281Z,46.49
2018-03-27T10:05:40.887Z,45.54